sensor_id;sensor_type;location;lat;lon;timestamp;pressure;altitude;pressure_sealevel;temperature;humidity
68634;BME280;55625;47.072;22.192;2022-07-29T00:00:46;99702.84;;;23.35;54.69
68634;BME280;55625;47.072;22.192;2022-07-29T00:03:13;99709.50;;;23.30;54.87
68634;BME280;55625;47.072;22.192;2022-07-29T00:05:40;99705.84;;;23.23;55.56
68634;BME280;55625;47.072;22.192;2022-07-29T00:08:08;99708.19;;;23.25;55.93
68634;BME280;55625;47.072;22.192;2022-07-29T00:10:34;99708.50;;;23.21;56.31
68634;BME280;55625;47.072;22.192;2022-07-29T00:13:01;99709.84;;;23.20;56.14
68634;BME280;55625;47.072;22.192;2022-07-29T00:15:27;99708.03;;;23.17;56.59
68634;BME280;55625;47.072;22.192;2022-07-29T00:17:53;99708.56;;;23.16;56.41
68634;BME280;55625;47.072;22.192;2022-07-29T00:20:19;99696.50;;;23.12;55.79
68634;BME280;55625;47.072;22.192;2022-07-29T00:22:45;99705.50;;;23.08;56.47
68634;BME280;55625;47.072;22.192;2022-07-29T00:25:12;99700.97;;;23.13;55.43
68634;BME280;55625;47.072;22.192;2022-07-29T00:27:38;99699.47;;;23.06;55.75
68634;BME280;55625;47.072;22.192;2022-07-29T00:30:06;99692.94;;;23.00;55.93
68634;BME280;55625;47.072;22.192;2022-07-29T00:32:32;99697.66;;;23.03;55.77
68634;BME280;55625;47.072;22.192;2022-07-29T00:34:58;99696.63;;;23.01;55.93
68634;BME280;55625;47.072;22.192;2022-07-29T00:37:43;99692.94;;;23.00;55.80
68634;BME280;55625;47.072;22.192;2022-07-29T00:40:09;99697.16;;;22.99;56.06
68634;BME280;55625;47.072;22.192;2022-07-29T00:42:47;99702.16;;;22.99;55.92
68634;BME280;55625;47.072;22.192;2022-07-29T00:45:14;99700.06;;;22.99;56.29
68634;BME280;55625;47.072;22.192;2022-07-29T00:47:40;99696.88;;;23.03;55.88
68634;BME280;55625;47.072;22.192;2022-07-29T00:50:08;99698.19;;;23.02;56.16
68634;BME280;55625;47.072;22.192;2022-07-29T00:52:37;99697.41;;;23.01;56.29
68634;BME280;55625;47.072;22.192;2022-07-29T00:55:06;99700.31;;;23.01;56.14
68634;BME280;55625;47.072;22.192;2022-07-29T00:57:34;99702.97;;;22.99;56.27
68634;BME280;55625;47.072;22.192;2022-07-29T01:00:00;99697.16;;;22.99;56.23
68634;BME280;55625;47.072;22.192;2022-07-29T01:02:26;99700.31;;;23.01;56.29
68634;BME280;55625;47.072;22.192;2022-07-29T01:04:53;99694.28;;;22.99;56.03
68634;BME280;55625;47.072;22.192;2022-07-29T01:07:19;99698.50;;;22.98;56.98
68634;BME280;55625;47.072;22.192;2022-07-29T01:09:46;99697.44;;;22.96;57.00
68634;BME280;55625;47.072;22.192;2022-07-29T01:12:25;99687.72;;;22.93;57.06
68634;BME280;55625;47.072;22.192;2022-07-29T01:14:53;99687.47;;;22.91;57.01
68634;BME280;55625;47.072;22.192;2022-07-29T01:18:46;99697.50;;;22.90;57.20
68634;BME280;55625;47.072;22.192;2022-07-29T01:24:20;99688.09;;;22.84;58.28
68634;BME280;55625;47.072;22.192;2022-07-29T01:30:07;99690.97;;;22.84;57.99
68634;BME280;55625;47.072;22.192;2022-07-29T01:32:37;99675.72;;;22.83;58.20
68634;BME280;55625;47.072;22.192;2022-07-29T01:35:17;99678.63;;;22.83;58.57
68634;BME280;55625;47.072;22.192;2022-07-29T01:43:09;99678.66;;;22.78;58.43
68634;BME280;55625;47.072;22.192;2022-07-29T01:45:51;99671.84;;;22.75;58.66
68634;BME280;55625;47.072;22.192;2022-07-29T01:48:23;99674.72;;;22.75;58.26
68634;BME280;55625;47.072;22.192;2022-07-29T01:50:58;99669.47;;;22.74;58.83
68634;BME280;55625;47.072;22.192;2022-07-29T01:53:37;99662.41;;;22.69;58.48
68634;BME280;55625;47.072;22.192;2022-07-29T01:56:06;99669.00;;;22.70;59.10
68634;BME280;55625;47.072;22.192;2022-07-29T01:58:33;99654.78;;;22.72;58.68
68634;BME280;55625;47.072;22.192;2022-07-29T02:01:02;99665.00;;;22.73;59.24
68634;BME280;55625;47.072;22.192;2022-07-29T02:03:29;99657.41;;;22.70;59.48
68634;BME280;55625;47.072;22.192;2022-07-29T02:05:57;99657.72;;;22.66;59.82
68634;BME280;55625;47.072;22.192;2022-07-29T02:08:25;99656.66;;;22.63;59.89
68634;BME280;55625;47.072;22.192;2022-07-29T02:10:52;99659.81;;;22.66;60.20
68634;BME280;55625;47.072;22.192;2022-07-29T02:13:21;99657.50;;;22.58;60.31
68634;BME280;55625;47.072;22.192;2022-07-29T02:15:50;99658.28;;;22.59;60.64
68634;BME280;55625;47.072;22.192;2022-07-29T02:18:19;99658.81;;;22.57;61.19
68634;BME280;55625;47.072;22.192;2022-07-29T02:20:50;99655.16;;;22.57;61.51
68634;BME280;55625;47.072;22.192;2022-07-29T02:23:21;99661.72;;;22.57;61.02
68634;BME280;55625;47.072;22.192;2022-07-29T02:25:56;99654.59;;;22.58;60.88
68634;BME280;55625;47.072;22.192;2022-07-29T02:28:29;99654.06;;;22.60;60.42
68634;BME280;55625;47.072;22.192;2022-07-29T02:31:01;99652.75;;;22.61;60.23
68634;BME280;55625;47.072;22.192;2022-07-29T02:33:29;99660.63;;;22.60;60.33
68634;BME280;55625;47.072;22.192;2022-07-29T02:35:57;99660.63;;;22.60;60.12
68634;BME280;55625;47.072;22.192;2022-07-29T02:38:25;99679.56;;;22.61;61.17
68634;BME280;55625;47.072;22.192;2022-07-29T02:41:15;99676.72;;;22.56;60.62
68634;BME280;55625;47.072;22.192;2022-07-29T02:43:43;99677.00;;;22.52;60.43
68634;BME280;55625;47.072;22.192;2022-07-29T02:46:17;99674.47;;;22.43;61.16
68634;BME280;55625;47.072;22.192;2022-07-29T02:52:26;99672.94;;;22.37;61.13
68634;BME280;55625;47.072;22.192;2022-07-29T02:55:07;99676.09;;;22.33;61.76
68634;BME280;55625;47.072;22.192;2022-07-29T02:58:13;99670.06;;;22.31;61.69
68634;BME280;55625;47.072;22.192;2022-07-29T03:00:41;99673.25;;;22.27;61.76
68634;BME280;55625;47.072;22.192;2022-07-29T03:03:13;99675.13;;;22.25;61.77
68634;BME280;55625;47.072;22.192;2022-07-29T03:05:41;99674.56;;;22.26;62.24
68634;BME280;55625;47.072;22.192;2022-07-29T03:08:10;99670.91;;;22.26;62.08
68634;BME280;55625;47.072;22.192;2022-07-29T03:10:43;99673.53;;;22.24;62.64
68634;BME280;55625;47.072;22.192;2022-07-29T03:13:10;99672.75;;;22.23;62.52
68634;BME280;55625;47.072;22.192;2022-07-29T03:15:38;99669.38;;;22.19;62.49
68634;BME280;55625;47.072;22.192;2022-07-29T03:18:06;99670.69;;;22.18;62.33
68634;BME280;55625;47.072;22.192;2022-07-29T03:20:32;99677.00;;;22.17;62.77
68634;BME280;55625;47.072;22.192;2022-07-29T03:22:58;99681.72;;;22.20;62.56
68634;BME280;55625;47.072;22.192;2022-07-29T03:25:24;99678.81;;;22.20;62.57
68634;BME280;55625;47.072;22.192;2022-07-29T03:27:50;99685.94;;;22.19;63.11
68634;BME280;55625;47.072;22.192;2022-07-29T03:30:16;99688.81;;;22.19;63.49
68634;BME280;55625;47.072;22.192;2022-07-29T03:32:42;99683.81;;;22.19;63.93
68634;BME280;55625;47.072;22.192;2022-07-29T03:35:08;99682.78;;;22.17;64.67
68634;BME280;55625;47.072;22.192;2022-07-29T03:37:34;99678.34;;;22.16;65.21
68634;BME280;55625;47.072;22.192;2022-07-29T03:40:05;99673.59;;;22.18;64.51
68634;BME280;55625;47.072;22.192;2022-07-29T03:42:35;99679.91;;;22.17;64.83
68634;BME280;55625;47.072;22.192;2022-07-29T03:45:06;99685.41;;;22.20;64.75
68634;BME280;55625;47.072;22.192;2022-07-29T03:47:35;99684.06;;;22.21;65.13
68634;BME280;55625;47.072;22.192;2022-07-29T03:50:10;99692.47;;;22.25;64.55
68634;BME280;55625;47.072;22.192;2022-07-29T03:52:37;99683.53;;;22.23;64.05
68634;BME280;55625;47.072;22.192;2022-07-29T03:55:04;99692.16;;;22.28;63.00
68634;BME280;55625;47.072;22.192;2022-07-29T03:57:31;99694.78;;;22.32;62.54
68634;BME280;55625;47.072;22.192;2022-07-29T03:59:58;99694.28;;;22.28;62.87
68634;BME280;55625;47.072;22.192;2022-07-29T04:02:26;99696.91;;;22.26;63.50
68634;BME280;55625;47.072;22.192;2022-07-29T04:04:53;99692.47;;;22.25;63.79
68634;BME280;55625;47.072;22.192;2022-07-29T04:07:18;99696.38;;;22.27;63.97
68634;BME280;55625;47.072;22.192;2022-07-29T04:09:44;99690.09;;;22.23;64.28
68634;BME280;55625;47.072;22.192;2022-07-29T04:12:10;99694.31;;;22.22;63.81
68634;BME280;55625;47.072;22.192;2022-07-29T04:14:36;99691.97;;;22.21;63.64
68634;BME280;55625;47.072;22.192;2022-07-29T04:17:04;99693.81;;;22.18;64.12
68634;BME280;55625;47.072;22.192;2022-07-29T04:19:31;99692.28;;;22.12;64.57
68634;BME280;55625;47.072;22.192;2022-07-29T04:21:59;99693.06;;;22.12;64.10
68634;BME280;55625;47.072;22.192;2022-07-29T04:24:26;99693.81;;;22.18;63.91
68634;BME280;55625;47.072;22.192;2022-07-29T04:26:53;99696.50;;;22.11;63.46
68634;BME280;55625;47.072;22.192;2022-07-29T04:29:19;99701.78;;;22.07;63.80
68634;BME280;55625;47.072;22.192;2022-07-29T04:31:45;99703.09;;;22.06;63.45
68634;BME280;55625;47.072;22.192;2022-07-29T04:34:11;99699.16;;;22.09;63.84
68634;BME280;55625;47.072;22.192;2022-07-29T04:36:37;99703.84;;;22.12;63.32
68634;BME280;55625;47.072;22.192;2022-07-29T04:39:04;99707.53;;;22.12;63.47
68634;BME280;55625;47.072;22.192;2022-07-29T04:41:30;99703.03;;;22.17;63.30
68634;BME280;55625;47.072;22.192;2022-07-29T04:43:56;99709.84;;;22.19;63.59
68634;BME280;55625;47.072;22.192;2022-07-29T04:46:22;99708.47;;;22.26;63.86
68634;BME280;55625;47.072;22.192;2022-07-29T04:48:48;99708.72;;;22.28;63.61
68634;BME280;55625;47.072;22.192;2022-07-29T04:51:15;99706.63;;;22.28;64.00
68634;BME280;55625;47.072;22.192;2022-07-29T04:53:41;99706.34;;;22.32;63.82
68634;BME280;55625;47.072;22.192;2022-07-29T04:56:07;99710.81;;;22.33;63.95
68634;BME280;55625;47.072;22.192;2022-07-29T04:58:36;99709.75;;;22.36;63.72
68634;BME280;55625;47.072;22.192;2022-07-29T05:01:03;99711.84;;;22.36;64.12
68634;BME280;55625;47.072;22.192;2022-07-29T05:03:29;99712.91;;;22.33;64.13
68634;BME280;55625;47.072;22.192;2022-07-29T05:05:55;99711.59;;;22.34;64.83
68634;BME280;55625;47.072;22.192;2022-07-29T05:08:21;99716.59;;;22.33;65.22
68634;BME280;55625;47.072;22.192;2022-07-29T05:10:47;99720.00;;;22.31;65.19
68634;BME280;55625;47.072;22.192;2022-07-29T05:13:13;99720.78;;;22.32;64.72
68634;BME280;55625;47.072;22.192;2022-07-29T05:15:39;99722.13;;;22.31;65.44
68634;BME280;55625;47.072;22.192;2022-07-29T05:18:05;99720.78;;;22.32;64.67
68634;BME280;55625;47.072;22.192;2022-07-29T05:20:31;99719.47;;;22.39;64.41
68634;BME280;55625;47.072;22.192;2022-07-29T05:22:59;99724.16;;;22.42;64.51
68634;BME280;55625;47.072;22.192;2022-07-29T05:25:27;99717.31;;;22.45;64.59
68634;BME280;55625;47.072;22.192;2022-07-29T05:27:53;99725.94;;;22.50;64.72
68634;BME280;55625;47.072;22.192;2022-07-29T05:30:20;99727.25;;;22.49;65.13
68634;BME280;55625;47.072;22.192;2022-07-29T05:32:46;99709.91;;;22.49;65.20
68634;BME280;55625;47.072;22.192;2022-07-29T05:35:13;99723.28;;;22.52;65.51
68634;BME280;55625;47.072;22.192;2022-07-29T05:37:40;99727.72;;;22.59;65.11
68634;BME280;55625;47.072;22.192;2022-07-29T05:40:06;99720.66;;;22.54;64.52
68634;BME280;55625;47.072;22.192;2022-07-29T05:42:32;99715.06;;;22.62;64.72
68634;BME280;55625;47.072;22.192;2022-07-29T05:44:59;99717.16;;;22.67;64.11
68634;BME280;55625;47.072;22.192;2022-07-29T05:47:25;99722.59;;;22.76;64.30
68634;BME280;55625;47.072;22.192;2022-07-29T05:49:51;99719.13;;;22.83;64.05
68634;BME280;55625;47.072;22.192;2022-07-29T05:52:17;99720.09;;;22.91;64.12
68634;BME280;55625;47.072;22.192;2022-07-29T05:54:43;99715.63;;;22.96;64.26
68634;BME280;55625;47.072;22.192;2022-07-29T05:57:20;99727.38;;;23.04;65.05
68634;BME280;55625;47.072;22.192;2022-07-29T05:59:47;99727.81;;;23.13;64.74
68634;BME280;55625;47.072;22.192;2022-07-29T06:02:14;99728.53;;;23.19;64.63
68634;BME280;55625;47.072;22.192;2022-07-29T06:04:40;99733.44;;;23.30;64.08
68634;BME280;55625;47.072;22.192;2022-07-29T06:07:06;99734.94;;;23.37;63.92
68634;BME280;55625;47.072;22.192;2022-07-29T06:09:33;99735.66;;;23.43;62.98
68634;BME280;55625;47.072;22.192;2022-07-29T06:11:59;99741.72;;;23.45;62.95
68634;BME280;55625;47.072;22.192;2022-07-29T06:14:25;99740.75;;;23.37;62.76
68634;BME280;55625;47.072;22.192;2022-07-29T06:16:54;99750.47;;;23.39;63.43
68634;BME280;55625;47.072;22.192;2022-07-29T06:19:20;99741.22;;;23.41;63.89
68634;BME280;55625;47.072;22.192;2022-07-29T06:21:47;99744.13;;;23.41;64.44
68634;BME280;55625;47.072;22.192;2022-07-29T06:24:15;99753.78;;;23.49;64.09
68634;BME280;55625;47.072;22.192;2022-07-29T06:26:42;99747.19;;;23.48;63.60
68634;BME280;55625;47.072;22.192;2022-07-29T06:29:08;99745.88;;;23.49;63.57
68634;BME280;55625;47.072;22.192;2022-07-29T06:31:36;99755.56;;;23.52;63.73
68634;BME280;55625;47.072;22.192;2022-07-29T06:34:02;99742.38;;;23.57;64.00
68634;BME280;55625;47.072;22.192;2022-07-29T06:36:28;99747.59;;;23.64;64.02
68634;BME280;55625;47.072;22.192;2022-07-29T06:38:54;99747.06;;;23.65;63.86
68634;BME280;55625;47.072;22.192;2022-07-29T06:41:20;99740.16;;;23.68;64.63
68634;BME280;55625;47.072;22.192;2022-07-29T06:43:46;99741.13;;;23.76;64.19
68634;BME280;55625;47.072;22.192;2022-07-29T06:46:14;99744.47;;;23.80;64.13
68634;BME280;55625;47.072;22.192;2022-07-29T06:48:42;99747.03;;;23.90;63.83
68634;BME280;55625;47.072;22.192;2022-07-29T06:51:09;99745.84;;;23.98;63.75
68634;BME280;55625;47.072;22.192;2022-07-29T06:53:36;99733.63;;;24.05;63.13
68634;BME280;55625;47.072;22.192;2022-07-29T06:56:03;99736.69;;;24.13;62.85
68634;BME280;55625;47.072;22.192;2022-07-29T06:58:29;99739.75;;;24.21;62.29
68634;BME280;55625;47.072;22.192;2022-07-29T07:00:57;99738.84;;;24.31;61.78
68634;BME280;55625;47.072;22.192;2022-07-29T07:03:24;99742.03;;;24.46;61.29
68634;BME280;55625;47.072;22.192;2022-07-29T07:05:52;99741.78;;;24.63;61.55
68634;BME280;55625;47.072;22.192;2022-07-29T07:08:18;99739.66;;;24.83;60.40
68634;BME280;55625;47.072;22.192;2022-07-29T07:10:45;99728.28;;;25.30;60.44
68634;BME280;55625;47.072;22.192;2022-07-29T07:13:11;99750.22;;;25.71;58.37
68634;BME280;55625;47.072;22.192;2022-07-29T07:15:37;99739.06;;;25.88;56.19
68634;BME280;55625;47.072;22.192;2022-07-29T07:18:05;99743.19;;;25.92;55.39
68634;BME280;55625;47.072;22.192;2022-07-29T07:20:33;99727.94;;;25.99;54.91
68634;BME280;55625;47.072;22.192;2022-07-29T07:22:59;99736.84;;;26.28;54.78
68634;BME280;55625;47.072;22.192;2022-07-29T07:25:25;99733.34;;;26.77;53.20
68634;BME280;55625;47.072;22.192;2022-07-29T07:27:51;99736.78;;;27.30;51.70
68634;BME280;55625;47.072;22.192;2022-07-29T07:30:17;99737.34;;;27.78;50.25
68634;BME280;55625;47.072;22.192;2022-07-29T07:32:43;99741.34;;;28.32;49.51
68634;BME280;55625;47.072;22.192;2022-07-29T07:35:09;99739.09;;;28.53;47.91
68634;BME280;55625;47.072;22.192;2022-07-29T07:37:36;99741.25;;;28.75;47.16
68634;BME280;55625;47.072;22.192;2022-07-29T07:40:04;99733.94;;;28.97;46.95
68634;BME280;55625;47.072;22.192;2022-07-29T07:42:30;99738.25;;;29.19;46.73
68634;BME280;55625;47.072;22.192;2022-07-29T07:44:56;99742.34;;;29.39;44.64
68634;BME280;55625;47.072;22.192;2022-07-29T07:47:22;99740.56;;;29.28;45.60
68634;BME280;55625;47.072;22.192;2022-07-29T07:49:53;99739.41;;;29.31;45.72
68634;BME280;55625;47.072;22.192;2022-07-29T07:52:20;99741.75;;;29.41;46.42
68634;BME280;55625;47.072;22.192;2022-07-29T07:54:48;99746.03;;;29.62;45.69
68634;BME280;55625;47.072;22.192;2022-07-29T07:57:14;99749.16;;;29.72;45.98
68634;BME280;55625;47.072;22.192;2022-07-29T07:59:41;99743.25;;;29.87;46.01
68634;BME280;55625;47.072;22.192;2022-07-29T08:02:08;99747.94;;;30.06;45.34
68634;BME280;55625;47.072;22.192;2022-07-29T08:04:34;99740.50;;;30.05;44.67
68634;BME280;55625;47.072;22.192;2022-07-29T08:07:01;99749.50;;;30.07;44.91
68634;BME280;55625;47.072;22.192;2022-07-29T08:09:28;99744.19;;;30.13;44.94
68634;BME280;55625;47.072;22.192;2022-07-29T08:11:55;99753.72;;;30.21;44.08
68634;BME280;55625;47.072;22.192;2022-07-29T08:14:21;99755.09;;;30.68;42.21
68634;BME280;55625;47.072;22.192;2022-07-29T08:16:47;99744.50;;;31.05;43.00
68634;BME280;55625;47.072;22.192;2022-07-29T08:19:13;99746.00;;;31.13;41.94
68634;BME280;55625;47.072;22.192;2022-07-29T08:21:39;99758.34;;;31.37;41.16
68634;BME280;55625;47.072;22.192;2022-07-29T08:24:05;99757.47;;;31.27;42.08
68634;BME280;55625;47.072;22.192;2022-07-29T08:26:50;99761.50;;;31.06;42.23
68634;BME280;55625;47.072;22.192;2022-07-29T08:29:16;99759.41;;;30.99;43.02
68634;BME280;55625;47.072;22.192;2022-07-29T08:31:42;99753.16;;;31.28;42.42
68634;BME280;55625;47.072;22.192;2022-07-29T08:34:08;99757.06;;;31.72;41.66
68634;BME280;55625;47.072;22.192;2022-07-29T08:36:35;99760.63;;;31.88;40.83
68634;BME280;55625;47.072;22.192;2022-07-29T08:39:02;99743.34;;;31.75;39.85
68634;BME280;55625;47.072;22.192;2022-07-29T08:41:28;99745.31;;;31.72;40.16
68634;BME280;55625;47.072;22.192;2022-07-29T08:43:54;99761.25;;;31.87;40.35
68634;BME280;55625;47.072;22.192;2022-07-29T08:46:20;99755.53;;;31.89;39.85
68634;BME280;55625;47.072;22.192;2022-07-29T08:48:47;99748.50;;;31.67;40.36
68634;BME280;55625;47.072;22.192;2022-07-29T08:51:20;99754.44;;;31.59;40.28
68634;BME280;55625;47.072;22.192;2022-07-29T08:53:48;99756.78;;;31.36;39.91
68634;BME280;55625;47.072;22.192;2022-07-29T08:56:16;99751.81;;;31.46;40.64
68634;BME280;55625;47.072;22.192;2022-07-29T08:58:43;99750.56;;;31.32;39.34
68634;BME280;55625;47.072;22.192;2022-07-29T09:01:12;99745.31;;;31.30;39.71
68634;BME280;55625;47.072;22.192;2022-07-29T09:03:40;99753.84;;;31.61;39.88
68634;BME280;55625;47.072;22.192;2022-07-29T09:06:07;99748.00;;;32.12;39.16
68634;BME280;55625;47.072;22.192;2022-07-29T09:08:33;99742.81;;;32.55;37.51
68634;BME280;55625;47.072;22.192;2022-07-29T09:11:01;99734.72;;;32.73;37.42
68634;BME280;55625;47.072;22.192;2022-07-29T09:13:28;99737.44;;;32.79;37.64
68634;BME280;55625;47.072;22.192;2022-07-29T09:15:54;99729.00;;;32.75;37.13
68634;BME280;55625;47.072;22.192;2022-07-29T09:18:41;99732.91;;;32.78;37.10
68634;BME280;55625;47.072;22.192;2022-07-29T09:21:13;99726.75;;;33.10;35.78
68634;BME280;55625;47.072;22.192;2022-07-29T09:24:10;99727.81;;;33.42;35.95
68634;BME280;55625;47.072;22.192;2022-07-29T09:26:42;99723.03;;;33.65;34.27
68634;BME280;55625;47.072;22.192;2022-07-29T09:29:20;99730.59;;;33.49;35.19
68634;BME280;55625;47.072;22.192;2022-07-29T09:31:51;99728.16;;;33.65;35.46
68634;BME280;55625;47.072;22.192;2022-07-29T09:36:51;99711.75;;;33.72;33.55
68634;BME280;55625;47.072;22.192;2022-07-29T09:39:39;99716.53;;;33.57;33.61
68634;BME280;55625;47.072;22.192;2022-07-29T09:42:11;99713.72;;;33.40;33.39
68634;BME280;55625;47.072;22.192;2022-07-29T09:44:49;99700.88;;;33.64;34.50
68634;BME280;55625;47.072;22.192;2022-07-29T09:47:18;99703.41;;;33.97;34.32
68634;BME280;55625;47.072;22.192;2022-07-29T09:49:55;99701.25;;;34.36;33.63
68634;BME280;55625;47.072;22.192;2022-07-29T09:52:24;99704.06;;;34.34;32.91
68634;BME280;55625;47.072;22.192;2022-07-29T09:54:51;99685.53;;;34.53;33.36
68634;BME280;55625;47.072;22.192;2022-07-29T09:57:27;99676.09;;;34.45;31.77
68634;BME280;55625;47.072;22.192;2022-07-29T09:59:59;99680.94;;;34.31;33.15
68634;BME280;55625;47.072;22.192;2022-07-29T10:02:34;99685.59;;;34.34;32.79
68634;BME280;55625;47.072;22.192;2022-07-29T10:05:02;99675.66;;;34.39;32.02
68634;BME280;55625;47.072;22.192;2022-07-29T10:10:10;99677.50;;;34.24;32.56
68634;BME280;55625;47.072;22.192;2022-07-29T10:13:14;99685.69;;;34.65;32.21
68634;BME280;55625;47.072;22.192;2022-07-29T10:15:44;99669.41;;;34.64;30.66
68634;BME280;55625;47.072;22.192;2022-07-29T10:18:13;99667.44;;;34.37;30.52
68634;BME280;55625;47.072;22.192;2022-07-29T10:20:39;99664.31;;;34.45;30.48
68634;BME280;55625;47.072;22.192;2022-07-29T10:23:06;99654.56;;;34.33;31.71
68634;BME280;55625;47.072;22.192;2022-07-29T10:25:32;99645.72;;;34.42;32.02
68634;BME280;55625;47.072;22.192;2022-07-29T10:27:58;99645.81;;;34.64;31.59
68634;BME280;55625;47.072;22.192;2022-07-29T10:30:26;99646.66;;;34.85;31.72
68634;BME280;55625;47.072;22.192;2022-07-29T10:36:27;99638.66;;;35.07;30.92
68634;BME280;55625;47.072;22.192;2022-07-29T10:39:44;99636.94;;;35.04;31.23
68634;BME280;55625;47.072;22.192;2022-07-29T10:42:21;99632.34;;;35.23;30.96
68634;BME280;55625;47.072;22.192;2022-07-29T10:44:50;99633.91;;;34.93;30.89
68634;BME280;55625;47.072;22.192;2022-07-29T10:47:34;99629.72;;;34.96;31.39
68634;BME280;55625;47.072;22.192;2022-07-29T10:50:03;99624.59;;;34.86;30.90
68634;BME280;55625;47.072;22.192;2022-07-29T10:55:38;99624.09;;;35.00;30.80
68634;BME280;55625;47.072;22.192;2022-07-29T10:58:17;99627.47;;;35.06;30.25
68634;BME280;55625;47.072;22.192;2022-07-29T11:00:43;99620.94;;;35.38;30.64
68634;BME280;55625;47.072;22.192;2022-07-29T11:03:10;99612.97;;;35.41;30.07
68634;BME280;55625;47.072;22.192;2022-07-29T11:05:56;99611.72;;;35.44;30.61
68634;BME280;55625;47.072;22.192;2022-07-29T11:08:25;99614.88;;;35.58;31.17
68634;BME280;55625;47.072;22.192;2022-07-29T11:13:46;99618.81;;;35.51;30.26
68634;BME280;55625;47.072;22.192;2022-07-29T11:16:16;99614.47;;;34.99;31.43
68634;BME280;55625;47.072;22.192;2022-07-29T11:21:44;99609.56;;;34.42;32.76
68634;BME280;55625;47.072;22.192;2022-07-29T11:24:27;99605.84;;;34.32;32.65
68634;BME280;55625;47.072;22.192;2022-07-29T11:27:30;99603.91;;;34.05;33.40
68634;BME280;55625;47.072;22.192;2022-07-29T11:30:05;99599.03;;;34.19;33.47
68634;BME280;55625;47.072;22.192;2022-07-29T11:32:40;99602.00;;;34.29;33.59
68634;BME280;55625;47.072;22.192;2022-07-29T11:35:21;99606.94;;;34.26;33.41
68634;BME280;55625;47.072;22.192;2022-07-29T11:38:27;99600.97;;;34.55;33.27
68634;BME280;55625;47.072;22.192;2022-07-29T11:41:24;99597.66;;;34.71;33.63
68634;BME280;55625;47.072;22.192;2022-07-29T11:44:00;99599.34;;;34.74;32.33
68634;BME280;55625;47.072;22.192;2022-07-29T11:46:47;99608.69;;;34.70;32.87
68634;BME280;55625;47.072;22.192;2022-07-29T11:49:26;99595.47;;;34.31;32.58
68634;BME280;55625;47.072;22.192;2022-07-29T11:51:56;99612.69;;;34.24;33.20
68634;BME280;55625;47.072;22.192;2022-07-29T11:54:34;99604.13;;;34.29;32.61
68634;BME280;55625;47.072;22.192;2022-07-29T11:57:00;99594.09;;;34.12;34.20
68634;BME280;55625;47.072;22.192;2022-07-29T11:59:26;99592.03;;;34.24;33.32
68634;BME280;55625;47.072;22.192;2022-07-29T12:01:58;99588.16;;;34.32;32.96
68634;BME280;55625;47.072;22.192;2022-07-29T12:04:25;99578.94;;;34.56;32.54
68634;BME280;55625;47.072;22.192;2022-07-29T12:06:55;99577.38;;;34.65;31.73
68634;BME280;55625;47.072;22.192;2022-07-29T12:09:23;99572.03;;;34.33;31.32
68634;BME280;55625;47.072;22.192;2022-07-29T12:11:58;99568.53;;;34.05;31.99
68634;BME280;55625;47.072;22.192;2022-07-29T12:14:33;99566.09;;;33.73;32.49
68634;BME280;55625;47.072;22.192;2022-07-29T12:17:00;99569.34;;;33.57;33.50
68634;BME280;55625;47.072;22.192;2022-07-29T12:19:29;99563.94;;;33.83;32.99
68634;BME280;55625;47.072;22.192;2022-07-29T12:22:07;99568.19;;;34.20;32.90
68634;BME280;55625;47.072;22.192;2022-07-29T12:25:07;99571.41;;;34.75;31.96
68634;BME280;55625;47.072;22.192;2022-07-29T12:27:36;99577.41;;;34.86;31.19
68634;BME280;55625;47.072;22.192;2022-07-29T12:30:09;99582.81;;;35.21;31.44
68634;BME280;55625;47.072;22.192;2022-07-29T12:32:42;99583.50;;;35.10;30.61
68634;BME280;55625;47.072;22.192;2022-07-29T12:35:15;99583.22;;;35.06;31.48
68634;BME280;55625;47.072;22.192;2022-07-29T12:37:43;99569.72;;;35.03;32.29
68634;BME280;55625;47.072;22.192;2022-07-29T12:40:15;99559.75;;;35.29;31.72
68634;BME280;55625;47.072;22.192;2022-07-29T12:43:04;99555.53;;;35.11;31.21
68634;BME280;55625;47.072;22.192;2022-07-29T12:45:31;99558.97;;;34.76;31.50
68634;BME280;55625;47.072;22.192;2022-07-29T12:47:57;99561.72;;;34.53;32.04
68634;BME280;55625;47.072;22.192;2022-07-29T12:50:23;99555.53;;;34.49;31.72
68634;BME280;55625;47.072;22.192;2022-07-29T12:52:50;99561.56;;;34.61;31.54
68634;BME280;55625;47.072;22.192;2022-07-29T12:55:41;99562.97;;;34.60;30.84
68634;BME280;55625;47.072;22.192;2022-07-29T12:58:07;99551.19;;;34.00;31.82
68634;BME280;55625;47.072;22.192;2022-07-29T13:00:33;99561.91;;;33.56;32.54
68634;BME280;55625;47.072;22.192;2022-07-29T13:03:00;99566.34;;;33.19;33.32
68634;BME280;55625;47.072;22.192;2022-07-29T13:05:44;99557.22;;;33.15;33.27
68634;BME280;55625;47.072;22.192;2022-07-29T13:08:17;99559.34;;;33.04;33.05
68634;BME280;55625;47.072;22.192;2022-07-29T13:10:46;99574.34;;;32.89;34.71
68634;BME280;55625;47.072;22.192;2022-07-29T13:13:14;99569.81;;;31.88;38.17
68634;BME280;55625;47.072;22.192;2022-07-29T13:15:43;99561.81;;;31.37;37.71
68634;BME280;55625;47.072;22.192;2022-07-29T13:18:34;99568.06;;;30.99;37.39
68634;BME280;55625;47.072;22.192;2022-07-29T13:21:15;99561.22;;;30.79;38.04
68634;BME280;55625;47.072;22.192;2022-07-29T13:23:41;99558.44;;;30.81;37.81
68634;BME280;55625;47.072;22.192;2022-07-29T13:26:11;99576.25;;;30.50;38.54
68634;BME280;55625;47.072;22.192;2022-07-29T13:28:38;99571.72;;;30.32;38.90
68634;BME280;55625;47.072;22.192;2022-07-29T13:31:05;99594.09;;;30.12;38.81
68634;BME280;55625;47.072;22.192;2022-07-29T13:33:30;99593.38;;;29.96;38.66
68634;BME280;55625;47.072;22.192;2022-07-29T13:35:56;99597.84;;;29.57;39.18
68634;BME280;55625;47.072;22.192;2022-07-29T13:38:22;99613.09;;;29.48;41.66